Flight Track Log - Related Links

Times and Time Zones

All times are in EDT time to prevent confusion due to time zone crossing. See the RPA3392 flight status page for this flight to view local times or setup timezone preferences in your user account.

Time Position Orientation Groundspeed Altitude Reporting Facility
EDT Latitude Longitude Course Direction KTS MPH feet Rate Location/Type
Sun 10:40:56 PM 38.8167 -77.0333 38° Northeast 147 169 1,800  Level Potomac TRACON
Sun 10:42:03 PM 38.7500 -77.0167 169° South 230 265 4,000 2,409 Climbing Potomac TRACON
Sun 10:43:00 PM 39.1316 -76.2368 57° Northeast  Level FlightAware Approximate
Sun 10:43:03 PM 38.7500 -76.9500 90° East 292 336 6,900  Level Potomac TRACON
Sun 10:44:00 PM 39.1676 -76.0257 81° East  Level FlightAware Approximate
Sun 10:44:33 PM 38.8236 -76.8306 52° Northeast 308 354 10,700  Level Washington Center
Sun 10:45:00 PM 39.2165 -75.8203 47° Northeast  Level FlightAware Approximate
Sun 10:45:35 PM 38.8767 -76.7303 56° Northeast 319 367 12,600  Level Washington Center
Sun 10:46:00 PM 39.3454 -75.6713 38° Northeast  Level FlightAware Approximate
Sun 10:46:34 PM 38.9339 -76.6269 55° Northeast 330 380 14,800  Level Washington Center
Sun 10:47:33 PM 38.9911 -76.5236 55° Northeast 346 398 17,500 2,100 Climbing Washington Center
Sun 10:48:34 PM 39.0189 -76.4064 73° East 341 392 19,000 1,328 Climbing Washington Center
Sun 10:49:35 PM 39.0197 -76.2728 89° East 341 392 20,200 958 Climbing Washington Center
Sun 10:50:33 PM 39.0642 -76.1344 67° East 377 434 20,900 966 Climbing Washington Center
Sun 10:51:33 PM 39.1294 -76.0064 57° Northeast 389 448 22,100 1,250 Climbing Washington Center
Sun 10:52:33 PM 39.1944 -75.8808 56° Northeast 409 471 23,400 1,230 Climbing Washington Center
Sun 10:53:35 PM 39.2800 -75.7686 45° Northeast 420 483 24,600 1,082 Climbing Washington Center
Sun 10:54:35 PM 39.3678 -75.6561 45° Northeast 426 490 25,600 1,109 Climbing Washington Center
Sun 10:55:34 PM 39.4531 -75.5431 46° Northeast 432 497 26,800 1,271 Climbing Washington Center
Sun 10:56:33 PM 39.5447 -75.4247 45° Northeast 437 503 28,100 1,109 Climbing Washington Center
Sun 10:57:33 PM 39.6361 -75.3058 45° Northeast 448 516 29,000 446 Climbing Washington Center
Sun 10:58:34 PM 39.7253 -75.1814 47° Northeast 458 527 29,000  Level Washington Center
Sun 10:59:17 PM 39.7797 -75.0983 50° Northeast 465 535 29,000  Level New York Center
Sun 11:00:18 PM 39.8742 -74.9661 47° Northeast 486 559 29,000  Level New York Center
Sun 11:01:18 PM 39.9642 -74.8361 48° Northeast 476 548 29,000  Level New York Center
Sun 11:02:17 PM 40.0497 -74.7108 48° Northeast 471 542 29,000  Level New York Center
Sun 11:03:20 PM 40.1414 -74.5886 46° Northeast 471 542 29,000  Level New York Center
Sun 11:04:17 PM 40.2456 -74.5236 25° Northeast 459 528 29,000  Level New York Center
Sun 11:06:11 PM 40.4881 -74.4511 13° North 451 519 29,000  Level Boston Center
Sun 11:07:11 PM 40.6097 -74.4139 13° North 440 506 29,000  Level Boston Center
Sun 11:08:11 PM 40.7058 -74.3867 12° North 440 506 29,000  Level Boston Center
Sun 11:09:11 PM 40.8525 -74.3525 10° North 440 506 29,000 -1,100 Level Boston Center
Sun 11:10:11 PM 40.9739 -74.3150 13° North 440 506 26,800 -1,500 Descending Boston Center
Sun 11:11:11 PM 41.0828 -74.2794 14° North 425 489 26,000 -400 Descending Boston Center
Sun 11:12:11 PM 41.2000 -74.2469 12° North 420 483 26,000  Level Boston Center
Sun 11:13:11 PM 41.3133 -74.2089 14° North 412 474 26,000  Level Boston Center
Sun 11:14:11 PM 41.4264 -74.1758 12° North 412 474 26,000 -1,150 Level Boston Center
Sun 11:15:11 PM 41.5456 -74.1403 13° North 419 482 23,700 -2,250 Descending Boston Center
Sun 11:16:11 PM 41.6525 -74.1097 12° North 411 473 21,500 -2,150 Descending Boston Center
Sun 11:17:11 PM 41.7633 -74.0739 14° North 401 461 19,400 -2,000 Descending Boston Center
Sun 11:18:11 PM 41.8533 -74.0483 12° North 380 437 17,500 -1,912 Descending Boston Center
Sun 11:18:42 PM 41.9119 -74.0275 15° North 368 423 16,500 -2,000 Descending Boston Center
Sun 11:19:11 PM 41.9622 -74.0147 11° North 369 425 15,500 -1,970 Descending Boston Center
Sun 11:19:49 PM 42.0228 -73.9967 12° North 355 409 14,300 -1,800 Descending Boston Center
Sun 11:20:11 PM 42.0481 -73.9889 13° North 354 407 13,700 -1,800 Descending Boston Center
Sun 11:20:49 PM 42.1169 -73.9683 12° North 349 402 12,500 -1,900 Descending Boston Center
Sun 11:21:11 PM 42.1486 -73.9550 17° North 343 395 11,800 -1,770 Descending Boston Center
Sun 11:21:50 PM 42.2092 -73.9397 11° North 338 389 10,700 -1,600 Descending Boston Center
Sun 11:22:11 PM 42.2322 -73.9319 14° North 335 386 10,200 -1,600 Descending Boston Center
Sun 11:22:50 PM 42.2886 -73.9164 12° North 293 337 9,100 -1,700 Descending Boston Center
Sun 11:23:11 PM 42.3181 -73.9058 15° North 298 343 8,500 -1,574 Descending Boston Center
Sun 11:23:51 PM 42.3703 -73.8872 15° North 275 316 7,500 -1,400 Descending Boston Center
Sun 11:24:11 PM 42.3850 -73.8847 North 274 315 7,100 -1,377 Descending Boston Center
Sun 11:24:52 PM 42.4436 -73.8667 13° North 263 303 6,100 -1,500 Descending Boston Center
Sun 11:25:11 PM 42.4644 -73.8586 16° North 263 303 5,600 -1,400 Descending Boston Center
Sun 11:25:52 PM 42.5125 -73.8456 11° North 249 287 4,700 -1,200 Descending Boston Center
Sun 11:26:11 PM 42.5250 -73.8431 North 251 289 4,400 -1,180 Descending Boston Center
Sun 11:26:53 PM 42.5775 -73.8272 13° North 236 272 3,500 -1,300 Descending Boston Center
Sun 11:27:11 PM 42.5922 -73.8192 22° Northeast 231 266 3,100 -984 Descending Boston Center
Sun 11:27:54 PM 42.6297 -73.8086 12° North 197 227 2,500 -700 Descending Boston Center
Sun 11:28:11 PM 42.6358 -73.8117 340° North 215 247 2,400 -353 Descending Boston Center

Login

Don't have an account? Register now (free) for customized features, flight alerts, and more!